Time;durP1;ratioP1;P1;durP2;ratioP2;P2;SDS_P1;SDS_P2;PMS_P1;PMS_P2;Temp;Humidity;BMP_temperature;BMP_pressure;BME280_temperature;BME280_humidity;BME280_pressure;Samples;Min_cycle;Max_cycle;Signal;HPM_P1;HPM_P2
2023/08/11 00:00:36;;;;;;;7.05;3.38;;;;;;;;;;7369101;19;20760;-71
2023/08/11 00:03:05;;;;;;;7.55;3.47;;;;;;;;;;7368758;19;20002;-71
2023/08/11 00:05:35;;;;;;;7.82;3.42;;;;;;;;;;7368185;19;20540;-71
2023/08/11 00:08:00;;;;;;;8.50;3.58;;;;;;;;;;7369242;19;20044;-71
2023/08/11 00:10:26;;;;;;;11.55;3.70;;;;;;;;;;7391119;19;19999;-71
2023/08/11 00:12:51;;;;;;;6.90;3.30;;;;;;;;;;7369381;19;20006;-71
2023/08/11 00:15:18;;;;;;;7.03;3.28;;;;;;;;;;7368851;19;20015;-71
2023/08/11 00:17:43;;;;;;;6.80;3.20;;;;;;;;;;7368550;19;20007;-73
2023/08/11 00:20:09;;;;;;;6.85;3.45;;;;;;;;;;7368499;19;20509;-72
2023/08/11 00:22:35;;;;;;;6.65;3.50;;;;;;;;;;7390396;19;19998;-72
2023/08/11 00:25:00;;;;;;;8.07;3.75;;;;;;;;;;7367306;19;20013;-72
2023/08/11 00:27:27;;;;;;;7.20;3.13;;;;;;;;;;7365569;19;20014;-71
2023/08/11 00:29:54;;;;;;;5.82;3.17;;;;;;;;;;7368594;19;20002;-71
2023/08/11 00:32:19;;;;;;;5.60;3.20;;;;;;;;;;7368972;19;20006;-72
2023/08/11 00:34:47;;;;;;;6.60;3.53;;;;;;;;;;7367260;19;20035;-72
2023/08/11 00:37:12;;;;;;;6.78;3.10;;;;;;;;;;7391249;19;20472;-72
2023/08/11 00:39:38;;;;;;;7.70;3.30;;;;;;;;;;7369140;19;20003;-72
2023/08/11 00:42:03;;;;;;;6.43;3.83;;;;;;;;;;7369215;19;20000;-71
2023/08/11 00:44:29;;;;;;;6.53;3.30;;;;;;;;;;7367707;19;20019;-71
2023/08/11 00:46:54;;;;;;;9.30;3.35;;;;;;;;;;7367496;19;20011;-71
2023/08/11 00:49:19;;;;;;;8.35;3.15;;;;;;;;;;7389497;19;19999;-71
2023/08/11 00:51:46;;;;;;;8.77;3.47;;;;;;;;;;7367488;19;20011;-71
2023/08/11 00:54:12;;;;;;;5.80;3.10;;;;;;;;;;7364705;19;20453;-71
2023/08/11 00:56:44;;;;;;;6.60;3.17;;;;;;;;;;7366187;19;20010;-71
2023/08/11 00:59:11;;;;;;;6.00;3.00;;;;;;;;;;7366111;19;20002;-72
2023/08/11 01:01:36;;;;;;;6.72;2.95;;;;;;;;;;7372472;19;20033;-71
2023/08/11 01:04:03;;;;;;;5.68;2.83;;;;;;;;;;7393147;19;20007;-72
2023/08/11 01:06:46;;;;;;;8.13;3.38;;;;;;;;;;7372350;19;20006;-72
2023/08/11 01:09:14;;;;;;;8.35;3.40;;;;;;;;;;7371146;19;20017;-71
2023/08/11 01:11:49;;;;;;;5.60;2.90;;;;;;;;;;7371764;19;20456;-72
2023/08/11 01:14:22;;;;;;;8.07;3.00;;;;;;;;;;7371113;19;20006;-71
2023/08/11 01:16:53;;;;;;;7.57;3.22;;;;;;;;;;7374751;19;20456;-71
2023/08/11 01:19:28;;;;;;;6.10;3.37;;;;;;;;;;7397454;19;20023;-72
2023/08/11 01:21:58;;;;;;;8.65;3.70;;;;;;;;;;7375126;19;19998;-72
2023/08/11 01:24:25;;;;;;;6.47;3.22;;;;;;;;;;7371730;19;20093;-71
2023/08/11 01:26:51;;;;;;;6.72;3.28;;;;;;;;;;7373126;19;20595;-71
2023/08/11 01:29:18;;;;;;;7.65;3.42;;;;;;;;;;7374675;19;20018;-72
2023/08/11 01:31:44;;;;;;;5.57;3.20;;;;;;;;;;7374133;19;20014;-72
2023/08/11 01:34:09;;;;;;;6.63;3.47;;;;;;;;;;7394494;19;20042;-72
2023/08/11 01:36:36;;;;;;;6.57;3.25;;;;;;;;;;7374888;19;20033;-71
2023/08/11 01:39:04;;;;;;;8.77;3.65;;;;;;;;;;7375759;19;20021;-71
2023/08/11 01:41:30;;;;;;;7.70;3.53;;;;;;;;;;7375300;19;20010;-71
2023/08/11 01:43:55;;;;;;;9.60;3.85;;;;;;;;;;7373283;19;20013;-72
2023/08/11 01:46:22;;;;;;;6.97;3.90;;;;;;;;;;7394996;19;20033;-72
2023/08/11 01:48:49;;;;;;;8.15;3.80;;;;;;;;;;7373694;19;20014;-71
2023/08/11 01:51:14;;;;;;;10.18;3.88;;;;;;;;;;7373987;19;20014;-72
2023/08/11 01:53:39;;;;;;;6.78;3.72;;;;;;;;;;7372633;19;20423;-71
2023/08/11 01:56:05;;;;;;;9.00;3.90;;;;;;;;;;7372576;19;20014;-72
2023/08/11 01:58:31;;;;;;;7.38;3.25;;;;;;;;;;7395667;19;20002;-71
2023/08/11 02:00:56;;;;;;;6.57;3.45;;;;;;;;;;7372880;19;20006;-71
2023/08/11 02:03:22;;;;;;;9.02;4.05;;;;;;;;;;7372418;19;20021;-71
2023/08/11 02:05:47;;;;;;;8.32;3.80;;;;;;;;;;7371837;19;20019;-71
2023/08/11 02:08:17;;;;;;;8.05;4.35;;;;;;;;;;7371181;19;20002;-72
2023/08/11 02:10:43;;;;;;;7.53;4.18;;;;;;;;;;7372603;19;20014;-71
2023/08/11 02:13:09;;;;;;;8.02;4.20;;;;;;;;;;7395034;19;20034;-71
2023/08/11 02:15:34;;;;;;;6.97;3.90;;;;;;;;;;7371900;19;20014;-71
2023/08/11 02:17:59;;;;;;;9.25;4.00;;;;;;;;;;7370756;19;20010;-71
2023/08/11 02:20:25;;;;;;;7.63;4.47;;;;;;;;;;7372875;19;20018;-71
2023/08/11 02:22:52;;;;;;;11.57;4.47;;;;;;;;;;7373370;19;20349;-71
2023/08/11 02:25:18;;;;;;;8.75;4.32;;;;;;;;;;7391534;19;20136;-70
2023/08/11 02:27:43;;;;;;;7.35;3.70;;;;;;;;;;7370532;19;20367;-72
2023/08/11 02:30:11;;;;;;;9.70;4.10;;;;;;;;;;7371913;19;20014;-71
2023/08/11 02:32:40;;;;;;;9.55;4.18;;;;;;;;;;7373011;19;20482;-70
2023/08/11 02:35:06;;;;;;;9.15;4.50;;;;;;;;;;7370738;19;20006;-71
2023/08/11 02:37:32;;;;;;;9.60;4.53;;;;;;;;;;7394770;19;20412;-71
2023/08/11 02:39:58;;;;;;;9.45;4.20;;;;;;;;;;7372647;19;20010;-71
2023/08/11 02:42:24;;;;;;;11.23;4.40;;;;;;;;;;7371747;19;20423;-71
2023/08/11 02:44:49;;;;;;;10.82;4.68;;;;;;;;;;7371832;19;20002;-70
2023/08/11 02:47:15;;;;;;;8.60;3.83;;;;;;;;;;7372173;19;20040;-71
2023/08/11 02:49:40;;;;;;;9.00;4.25;;;;;;;;;;7372375;19;20412;-71
2023/08/11 02:52:05;;;;;;;17.10;4.85;;;;;;;;;;7392630;19;20007;-70
2023/08/11 02:54:31;;;;;;;10.85;4.10;;;;;;;;;;7369502;19;20086;-71
2023/08/11 02:56:56;;;;;;;11.70;3.88;;;;;;;;;;7371722;19;20014;-71
2023/08/11 02:59:21;;;;;;;9.90;4.03;;;;;;;;;;7371749;19;20018;-73
2023/08/11 03:01:48;;;;;;;9.27;4.10;;;;;;;;;;7371991;19;20010;-71
2023/08/11 03:04:15;;;;;;;15.52;4.80;;;;;;;;;;7391504;19;20007;-72
2023/08/11 03:06:42;;;;;;;15.02;4.70;;;;;;;;;;7371865;19;20018;-71
2023/08/11 03:09:08;;;;;;;11.13;4.88;;;;;;;;;;7391791;19;20051;-70
2023/08/11 03:11:33;;;;;;;22.52;4.68;;;;;;;;;;7402590;19;20007;-71
2023/08/11 03:13:59;;;;;;;17.58;5.05;;;;;;;;;;7392865;19;20041;-72
2023/08/11 03:16:25;;;;;;;13.70;4.53;;;;;;;;;;7393705;19;20047;-71
2023/08/11 03:18:51;;;;;;;21.27;4.43;;;;;;;;;;7371420;19;20010;-72
2023/08/11 03:21:17;;;;;;;18.40;4.93;;;;;;;;;;7369423;19;20074;-71
2023/08/11 03:23:42;;;;;;;11.77;4.35;;;;;;;;;;7369767;19;20677;-71
2023/08/11 03:26:09;;;;;;;22.42;4.95;;;;;;;;;;7372021;19;20019;-71
2023/08/11 03:28:34;;;;;;;16.85;4.53;;;;;;;;;;7392113;19;20119;-71
2023/08/11 03:31:00;;;;;;;22.33;5.10;;;;;;;;;;7375540;19;20441;-71
2023/08/11 03:33:25;;;;;;;17.65;4.78;;;;;;;;;;7369089;19;20010;-72
2023/08/11 03:35:50;;;;;;;19.38;5.05;;;;;;;;;;7370525;19;20013;-72
2023/08/11 03:38:15;;;;;;;12.63;4.22;;;;;;;;;;7370184;19;19998;-71
2023/08/11 03:40:41;;;;;;;13.18;5.13;;;;;;;;;;7370564;19;19995;-72
2023/08/11 03:43:06;;;;;;;12.10;4.63;;;;;;;;;;7392022;19;20007;-72
2023/08/11 03:45:31;;;;;;;13.18;3.92;;;;;;;;;;7368889;19;20025;-71
2023/08/11 03:47:57;;;;;;;11.57;3.75;;;;;;;;;;7370573;19;19998;-72
2023/08/11 03:50:22;;;;;;;12.98;3.97;;;;;;;;;;7369596;19;20017;-72
2023/08/11 03:52:47;;;;;;;17.13;4.70;;;;;;;;;;7370010;19;20103;-72
2023/08/11 03:55:13;;;;;;;15.18;4.43;;;;;;;;;;7389268;19;20028;-72
2023/08/11 03:57:38;;;;;;;17.60;4.75;;;;;;;;;;7368781;19;20013;-71
2023/08/11 04:00:15;;;;;;;15.93;4.38;;;;;;;;;;7367729;19;20020;-72
2023/08/11 04:02:43;;;;;;;14.02;4.57;;;;;;;;;;7367487;19;20459;-71
2023/08/11 04:05:10;;;;;;;14.63;4.57;;;;;;;;;;7366225;19;20015;-71
2023/08/11 04:07:36;;;;;;;11.05;4.15;;;;;;;;;;7376980;19;20136;-72
2023/08/11 04:10:01;;;;;;;11.25;4.00;;;;;;;;;;7389390;19;19994;-71
2023/08/11 04:12:27;;;;;;;18.10;4.72;;;;;;;;;;7369362;19;20454;-72
2023/08/11 04:14:52;;;;;;;9.82;4.13;;;;;;;;;;7369148;19;19998;-72
2023/08/11 04:17:18;;;;;;;11.02;3.80;;;;;;;;;;7369133;19;20006;-72
2023/08/11 04:19:43;;;;;;;9.30;4.20;;;;;;;;;;7368090;19;20073;-73
2023/08/11 04:22:09;;;;;;;13.82;4.05;;;;;;;;;;7391444;19;20018;-72
2023/08/11 04:24:35;;;;;;;16.85;4.75;;;;;;;;;;7367817;19;20521;-72
2023/08/11 04:27:00;;;;;;;12.98;4.82;;;;;;;;;;7368051;19;20135;-72
2023/08/11 04:29:26;;;;;;;14.35;4.55;;;;;;;;;;7369846;19;20468;-72
2023/08/11 04:31:51;;;;;;;15.55;4.10;;;;;;;;;;7369509;19;20023;-72
2023/08/11 04:34:17;;;;;;;11.80;4.00;;;;;;;;;;7385319;19;20010;-72
2023/08/11 04:36:42;;;;;;;16.13;4.78;;;;;;;;;;7368275;19;20018;-72
2023/08/11 04:39:08;;;;;;;13.93;4.45;;;;;;;;;;7369285;19;20007;-72
2023/08/11 04:41:33;;;;;;;9.73;4.25;;;;;;;;;;7368378;19;20002;-70
2023/08/11 04:43:59;;;;;;;17.27;4.85;;;;;;;;;;7368024;19;20002;-73
2023/08/11 04:46:25;;;;;;;17.20;4.43;;;;;;;;;;7390353;19;20003;-71
2023/08/11 04:48:50;;;;;;;11.20;4.13;;;;;;;;;;7368690;19;20005;-72
2023/08/11 04:51:16;;;;;;;13.02;3.83;;;;;;;;;;7368313;19;20083;-72
2023/08/11 04:53:41;;;;;;;9.82;4.05;;;;;;;;;;7367040;19;20033;-71
2023/08/11 04:56:06;;;;;;;7.53;4.05;;;;;;;;;;7349696;19;20488;-72
2023/08/11 04:58:33;;;;;;;8.38;3.70;;;;;;;;;;7381879;19;19998;-71
2023/08/11 05:01:03;;;;;;;8.95;3.42;;;;;;;;;;7350778;19;20002;-71
2023/08/11 05:03:28;;;;;;;9.98;3.63;;;;;;;;;;7364993;19;20007;-71
2023/08/11 05:05:53;;;;;;;14.55;3.95;;;;;;;;;;7365743;19;20010;-71
2023/08/11 05:08:19;;;;;;;6.18;3.10;;;;;;;;;;7367328;19;20640;-71
2023/08/11 05:10:44;;;;;;;8.65;3.42;;;;;;;;;;7360130;19;20129;-71
2023/08/11 05:13:09;;;;;;;10.57;3.58;;;;;;;;;;7352024;19;20012;-71
2023/08/11 05:15:35;;;;;;;8.00;3.20;;;;;;;;;;7365495;19;20475;-71
2023/08/11 05:18:01;;;;;;;7.30;3.30;;;;;;;;;;7366973;19;20135;-71
2023/08/11 05:20:27;;;;;;;10.07;3.15;;;;;;;;;;7388126;19;20011;-71
2023/08/11 05:22:53;;;;;;;6.82;3.20;;;;;;;;;;7367370;19;20006;-71
2023/08/11 05:25:18;;;;;;;9.43;3.80;;;;;;;;;;7366439;19;20569;-71
2023/08/11 05:27:43;;;;;;;15.30;3.67;;;;;;;;;;7366112;19;20006;-71
2023/08/11 05:30:09;;;;;;;22.13;4.20;;;;;;;;;;7365064;19;20018;-71
2023/08/11 05:32:35;;;;;;;19.02;4.00;;;;;;;;;;7387805;19;20011;-71
2023/08/11 05:35:00;;;;;;;20.67;5.03;;;;;;;;;;7364262;19;20457;-71
2023/08/11 05:37:26;;;;;;;11.90;3.60;;;;;;;;;;7365971;19;20011;-70
2023/08/11 05:39:52;;;;;;;17.40;4.00;;;;;;;;;;7367504;19;20075;-71
2023/08/11 05:42:18;;;;;;;13.55;4.43;;;;;;;;;;7366368;19;20691;-72
2023/08/11 05:44:43;;;;;;;13.00;4.32;;;;;;;;;;7386585;19;20002;-71
2023/08/11 05:47:09;;;;;;;17.80;3.92;;;;;;;;;;7371114;19;20030;-72
2023/08/11 05:49:34;;;;;;;15.40;4.28;;;;;;;;;;7372552;19;20640;-72
2023/08/11 05:51:59;;;;;;;13.93;3.80;;;;;;;;;;7365538;19;20010;-71
2023/08/11 05:54:25;;;;;;;13.20;3.47;;;;;;;;;;7371550;19;20017;-71
2023/08/11 05:56:52;;;;;;;9.18;3.53;;;;;;;;;;7394743;19;19994;-72
2023/08/11 05:59:18;;;;;;;8.75;3.97;;;;;;;;;;7374094;19;20106;-71
2023/08/11 06:01:44;;;;;;;14.20;3.63;;;;;;;;;;7372886;19;20013;-72
2023/08/11 06:04:09;;;;;;;8.23;3.47;;;;;;;;;;7370253;19;20006;-71
2023/08/11 06:06:34;;;;;;;10.93;3.17;;;;;;;;;;7370985;19;20027;-71
2023/08/11 06:09:00;;;;;;;9.73;3.53;;;;;;;;;;7371942;19;20096;-72
2023/08/11 06:11:25;;;;;;;7.63;3.47;;;;;;;;;;7391803;19;20010;-72
2023/08/11 06:13:51;;;;;;;12.75;3.35;;;;;;;;;;7369566;19;20002;-71
2023/08/11 06:16:16;;;;;;;8.50;3.35;;;;;;;;;;7370791;19;20010;-71
2023/08/11 06:18:42;;;;;;;9.13;3.47;;;;;;;;;;7368658;19;20010;-71
2023/08/11 06:21:07;;;;;;;9.52;3.45;;;;;;;;;;7368576;19;20032;-71
2023/08/11 06:23:32;;;;;;;10.38;3.72;;;;;;;;;;7391026;19;20019;-71
2023/08/11 06:25:58;;;;;;;12.68;3.92;;;;;;;;;;7369151;19;20773;-71
2023/08/11 06:28:23;;;;;;;14.18;3.45;;;;;;;;;;7367784;19;20039;-71
2023/08/11 06:30:49;;;;;;;11.40;3.28;;;;;;;;;;7371535;19;20003;-70
2023/08/11 06:33:14;;;;;;;17.10;3.70;;;;;;;;;;7372802;19;20500;-71
2023/08/11 06:35:42;;;;;;;15.48;4.05;;;;;;;;;;7393579;19;20003;-72
2023/08/11 06:38:07;;;;;;;13.07;4.00;;;;;;;;;;7371327;19;20006;-72
2023/08/11 06:40:33;;;;;;;11.85;3.97;;;;;;;;;;7372045;19;20010;-71
2023/08/11 06:42:58;;;;;;;17.80;4.00;;;;;;;;;;7371413;19;20010;-71
2023/08/11 06:45:24;;;;;;;13.25;3.72;;;;;;;;;;7366598;19;20017;-70
2023/08/11 06:47:49;;;;;;;12.20;4.10;;;;;;;;;;7392291;19;20002;-72
2023/08/11 06:50:14;;;;;;;12.82;4.53;;;;;;;;;;7370419;19;20006;-71
2023/08/11 06:52:40;;;;;;;13.68;3.90;;;;;;;;;;7371098;19;20473;-71
2023/08/11 06:55:05;;;;;;;13.18;4.10;;;;;;;;;;7370984;19;20042;-70
2023/08/11 06:57:30;;;;;;;15.70;5.03;;;;;;;;;;7369347;19;20522;-70
2023/08/11 06:59:56;;;;;;;17.20;4.45;;;;;;;;;;7373312;19;20484;-71
2023/08/11 07:02:21;;;;;;;9.80;4.18;;;;;;;;;;7416512;19;20006;-70
2023/08/11 07:04:47;;;;;;;15.73;5.05;;;;;;;;;;7392098;19;20034;-71
2023/08/11 07:07:12;;;;;;;19.40;4.80;;;;;;;;;;7387843;19;20002;-70
2023/08/11 07:09:37;;;;;;;14.27;4.30;;;;;;;;;;7371200;19;20018;-71
2023/08/11 07:12:03;;;;;;;8.50;4.50;;;;;;;;;;7369052;19;20010;-72
2023/08/11 07:14:28;;;;;;;13.18;5.25;;;;;;;;;;7392233;19;20377;-71
2023/08/11 07:16:54;;;;;;;9.82;4.22;;;;;;;;;;7368903;19;20010;-71
2023/08/11 07:19:19;;;;;;;11.05;4.68;;;;;;;;;;7359516;19;20026;-72
2023/08/11 07:21:45;;;;;;;14.90;4.78;;;;;;;;;;7348328;19;20368;-72
2023/08/11 07:24:10;;;;;;;13.75;5.28;;;;;;;;;;7361243;19;20038;-73
2023/08/11 07:26:36;;;;;;;11.27;4.40;;;;;;;;;;7386634;19;20014;-73
2023/08/11 07:29:01;;;;;;;12.30;4.47;;;;;;;;;;7359618;19;20005;-71
2023/08/11 07:31:26;;;;;;;19.95;5.25;;;;;;;;;;7364386;19;20003;-70
2023/08/11 07:33:52;;;;;;;25.63;5.53;;;;;;;;;;7365043;19;20020;-71
2023/08/11 07:36:17;;;;;;;15.18;4.68;;;;;;;;;;7366152;19;20013;-72
2023/08/11 07:38:43;;;;;;;13.20;4.63;;;;;;;;;;7376826;19;20002;-71
2023/08/11 07:41:08;;;;;;;14.55;4.72;;;;;;;;;;7363375;19;20062;-71
2023/08/11 07:43:33;;;;;;;16.38;4.82;;;;;;;;;;7363498;19;20027;-71
2023/08/11 07:45:59;;;;;;;30.20;5.65;;;;;;;;;;7367536;19;20249;-71
2023/08/11 07:48:24;;;;;;;16.65;4.70;;;;;;;;;;7365511;19;20010;-72
2023/08/11 07:50:49;;;;;;;27.05;5.35;;;;;;;;;;7387872;19;20006;-72
2023/08/11 07:53:15;;;;;;;21.15;4.90;;;;;;;;;;7361538;19;20007;-72
2023/08/11 07:55:41;;;;;;;12.80;3.72;;;;;;;;;;7367238;19;20074;-71
2023/08/11 07:58:06;;;;;;;11.90;4.03;;;;;;;;;;7366096;19;20439;-71
2023/08/11 08:00:31;;;;;;;10.73;3.67;;;;;;;;;;7365346;19;20010;-71
2023/08/11 08:02:57;;;;;;;7.78;3.40;;;;;;;;;;7366959;19;19998;-71
2023/08/11 08:05:22;;;;;;;12.65;3.75;;;;;;;;;;7384186;19;20003;-71
2023/08/11 08:07:48;;;;;;;14.13;3.78;;;;;;;;;;7365255;19;20014;-71
2023/08/11 08:10:14;;;;;;;8.75;3.83;;;;;;;;;;7364684;19;20406;-71
2023/08/11 08:12:43;;;;;;;7.72;3.60;;;;;;;;;;7367391;19;20021;-74
2023/08/11 08:15:10;;;;;;;10.10;4.05;;;;;;;;;;7363092;19;20003;-72
2023/08/11 08:17:36;;;;;;;11.15;3.90;;;;;;;;;;7388605;19;20357;-71
2023/08/11 08:20:01;;;;;;;13.50;3.65;;;;;;;;;;7364087;19;20098;-72
2023/08/11 08:22:27;;;;;;;8.52;3.30;;;;;;;;;;7364037;19;20010;-72
2023/08/11 08:24:53;;;;;;;13.73;5.15;;;;;;;;;;7364675;19;20010;-72
2023/08/11 08:27:24;;;;;;;7.97;3.58;;;;;;;;;;7364018;19;20017;-72
2023/08/11 08:29:50;;;;;;;12.02;3.90;;;;;;;;;;7387523;19;20002;-72
2023/08/11 08:32:16;;;;;;;13.25;3.65;;;;;;;;;;7362987;19;20806;-72
2023/08/11 08:34:43;;;;;;;7.55;3.25;;;;;;;;;;7364098;19;20027;-72
2023/08/11 08:37:08;;;;;;;11.50;3.80;;;;;;;;;;7363863;19;20015;-72
2023/08/11 08:39:33;;;;;;;14.10;3.70;;;;;;;;;;7365701;19;20010;-68
2023/08/11 08:42:00;;;;;;;11.68;3.70;;;;;;;;;;7364761;19;20640;-68
2023/08/11 08:44:26;;;;;;;15.45;4.05;;;;;;;;;;7386000;19;20006;-69
2023/08/11 08:46:53;;;;;;;18.00;3.47;;;;;;;;;;7362561;19;20460;-68
2023/08/11 08:49:25;;;;;;;15.30;4.20;;;;;;;;;;7365071;19;20398;-69
2023/08/11 08:51:52;;;;;;;12.98;3.60;;;;;;;;;;7364792;19;20543;-69
2023/08/11 08:54:18;;;;;;;14.18;3.92;;;;;;;;;;7362538;19;20014;-69
2023/08/11 08:56:43;;;;;;;18.35;4.10;;;;;;;;;;7384061;19;20633;-69
2023/08/11 08:59:08;;;;;;;14.85;3.60;;;;;;;;;;7381816;19;20003;-68
2023/08/11 09:01:35;;;;;;;13.43;3.70;;;;;;;;;;7364944;19;20484;-69
2023/08/11 09:04:01;;;;;;;16.33;3.72;;;;;;;;;;7363898;19;20476;-68
2023/08/11 09:06:27;;;;;;;13.75;3.40;;;;;;;;;;7358160;19;20020;-69
2023/08/11 09:08:52;;;;;;;7.35;3.58;;;;;;;;;;7374537;19;19999;-69
2023/08/11 09:11:18;;;;;;;8.02;3.45;;;;;;;;;;7383881;19;20006;-69
2023/08/11 09:13:44;;;;;;;9.70;3.08;;;;;;;;;;7361017;19;20444;-69
2023/08/11 09:16:14;;;;;;;7.80;3.13;;;;;;;;;;7365274;19;20014;-69
2023/08/11 09:18:40;;;;;;;9.37;3.00;;;;;;;;;;7363088;19;20031;-68
2023/08/11 09:21:06;;;;;;;6.63;2.90;;;;;;;;;;7363751;19;20379;-69
2023/08/11 09:23:32;;;;;;;9.82;3.63;;;;;;;;;;7392831;19;20015;-68
2023/08/11 09:25:58;;;;;;;8.80;3.28;;;;;;;;;;7369670;19;20006;-69
2023/08/11 09:28:23;;;;;;;13.02;3.20;;;;;;;;;;7368713;19;20079;-69
2023/08/11 09:30:50;;;;;;;7.82;3.10;;;;;;;;;;7371061;19;20014;-69
2023/08/11 09:33:17;;;;;;;9.25;2.88;;;;;;;;;;7369553;19;20041;-69
2023/08/11 09:35:42;;;;;;;5.88;2.85;;;;;;;;;;7392587;19;20031;-68
2023/08/11 09:38:08;;;;;;;6.13;3.30;;;;;;;;;;7371276;19;20003;-70
2023/08/11 09:40:33;;;;;;;6.00;2.90;;;;;;;;;;7370540;19;20010;-69
2023/08/11 09:42:59;;;;;;;7.25;3.40;;;;;;;;;;7371442;19;20003;-69
2023/08/11 09:45:25;;;;;;;8.60;3.28;;;;;;;;;;7368928;19;20566;-69
2023/08/11 09:47:50;;;;;;;5.53;2.83;;;;;;;;;;7391647;19;20002;-68
2023/08/11 09:50:16;;;;;;;5.85;3.13;;;;;;;;;;7369955;19;20672;-69
2023/08/11 09:52:43;;;;;;;7.43;3.40;;;;;;;;;;7371462;19;20011;-68
2023/08/11 09:55:12;;;;;;;8.80;3.10;;;;;;;;;;7367300;19;20028;-69
2023/08/11 09:57:40;;;;;;;5.43;3.08;;;;;;;;;;7371228;19;20010;-69
2023/08/11 10:00:11;;;;;;;5.95;2.83;;;;;;;;;;7366204;19;20002;-68
2023/08/11 10:02:41;;;;;;;7.40;2.65;;;;;;;;;;7393072;19;20011;-67
2023/08/11 10:05:08;;;;;;;6.78;3.30;;;;;;;;;;7366324;19;20002;-68
2023/08/11 10:07:40;;;;;;;6.90;2.55;;;;;;;;;;7370098;19;20063;-67
2023/08/11 10:10:14;;;;;;;5.53;2.75;;;;;;;;;;7368193;19;20011;-68
2023/08/11 10:12:45;;;;;;;6.43;2.95;;;;;;;;;;7368956;19;20069;-68
2023/08/11 10:15:11;;;;;;;7.38;2.50;;;;;;;;;;7367543;19;19994;-67
2023/08/11 10:17:37;;;;;;;8.20;3.00;;;;;;;;;;7390960;19;20014;-68
2023/08/11 10:20:04;;;;;;;6.00;2.67;;;;;;;;;;7368338;19;20015;-67
2023/08/11 10:22:32;;;;;;;5.72;2.65;;;;;;;;;;7369586;19;20466;-67
2023/08/11 10:24:58;;;;;;;6.53;2.50;;;;;;;;;;7369537;19;20007;-67
2023/08/11 10:27:23;;;;;;;5.40;2.92;;;;;;;;;;7368631;19;20018;-67
2023/08/11 10:29:50;;;;;;;7.72;2.72;;;;;;;;;;7392228;19;20078;-67
2023/08/11 10:32:16;;;;;;;5.63;2.50;;;;;;;;;;7366451;19;20017;-67
2023/08/11 10:34:41;;;;;;;5.40;2.70;;;;;;;;;;7367736;19;20372;-67
2023/08/11 10:37:07;;;;;;;6.05;2.65;;;;;;;;;;7369131;19;20014;-67
2023/08/11 10:39:34;;;;;;;5.28;2.58;;;;;;;;;;7370508;19;20014;-67
2023/08/11 10:42:02;;;;;;;5.85;2.58;;;;;;;;;;7370279;19;20002;-67
2023/08/11 10:44:29;;;;;;;9.55;2.67;;;;;;;;;;7390284;19;20007;-66
2023/08/11 10:46:58;;;;;;;4.00;2.50;;;;;;;;;;7368970;19;20390;-68
2023/08/11 10:49:34;;;;;;;4.60;2.78;;;;;;;;;;7369724;19;20009;-67
2023/08/11 10:52:01;;;;;;;6.32;2.60;;;;;;;;;;7369009;19;20002;-67
2023/08/11 10:54:26;;;;;;;8.13;2.88;;;;;;;;;;7369364;19;20002;-67
2023/08/11 10:56:52;;;;;;;5.57;3.00;;;;;;;;;;7384566;19;20006;-67
2023/08/11 10:59:22;;;;;;;4.78;2.67;;;;;;;;;;7388354;19;20010;-68
2023/08/11 11:01:49;;;;;;;;;;;;;;;;;;7369956;19;20010;-66
2023/08/11 11:04:15;;;;;;;5.40;2.88;;;;;;;;;;7367215;19;19987;-68
2023/08/11 11:06:43;;;;;;;5.90;2.60;;;;;;;;;;7390414;19;20014;-66
2023/08/11 11:09:10;;;;;;;5.20;2.63;;;;;;;;;;7403413;19;19986;-74
2023/08/11 11:11:36;;;;;;;7.20;2.95;;;;;;;;;;7423419;19;19991;-74
2023/08/11 11:14:03;;;;;;;4.50;2.70;;;;;;;;;;7368257;19;20006;-74
2023/08/11 11:16:29;;;;;;;6.03;2.50;;;;;;;;;;7367541;19;20041;-74
2023/08/11 11:18:55;;;;;;;4.97;2.50;;;;;;;;;;7369169;19;20022;-74
2023/08/11 11:21:20;;;;;;;7.28;2.55;;;;;;;;;;7366961;19;20019;-75
2023/08/11 11:23:50;;;;;;;5.18;2.40;;;;;;;;;;7388127;19;20022;-74
2023/08/11 11:26:27;;;;;;;6.20;2.83;;;;;;;;;;7369081;19;20011;-74
2023/08/11 11:28:54;;;;;;;4.38;2.40;;;;;;;;;;7369040;19;20033;-74
2023/08/11 11:31:22;;;;;;;6.18;2.33;;;;;;;;;;7367835;19;20031;-74
2023/08/11 11:33:48;;;;;;;6.63;2.60;;;;;;;;;;7366922;19;20082;-74
2023/08/11 11:36:16;;;;;;;4.68;2.70;;;;;;;;;;7367114;19;20632;-74
2023/08/11 11:38:42;;;;;;;3.58;2.35;;;;;;;;;;7391696;19;20087;-73
2023/08/11 11:41:12;;;;;;;4.15;2.35;;;;;;;;;;7384646;19;20025;-73
2023/08/11 11:43:38;;;;;;;;;;;;;;;;;;7367780;19;20665;-72
2023/08/11 11:46:14;;;;;;;5.38;2.65;;;;;;;;;;7367947;19;19942;-74
2023/08/11 11:48:43;;;;;;;4.38;2.50;;;;;;;;;;7369575;19;20077;-74
2023/08/11 11:51:09;;;;;;;6.40;2.50;;;;;;;;;;7368508;19;20034;-74
2023/08/11 11:53:35;;;;;;;5.20;2.67;;;;;;;;;;7390338;19;20027;-74
2023/08/11 11:56:01;;;;;;;6.93;2.50;;;;;;;;;;7369438;19;20027;-74
2023/08/11 11:58:26;;;;;;;5.20;2.38;;;;;;;;;;7366231;19;20014;-74
2023/08/11 12:00:52;;;;;;;7.10;2.40;;;;;;;;;;7364597;19;20020;-73
2023/08/11 12:03:20;;;;;;;3.13;2.00;;;;;;;;;;7366011;19;20018;-73
2023/08/11 12:05:45;;;;;;;4.15;2.10;;;;;;;;;;7386365;19;20002;-73
2023/08/11 12:08:23;;;;;;;3.97;2.10;;;;;;;;;;7365798;19;20057;-74
2023/08/11 12:10:49;;;;;;;5.68;2.58;;;;;;;;;;7362206;19;20263;-73
2023/08/11 12:13:16;;;;;;;5.07;2.28;;;;;;;;;;7366599;19;20013;-75
2023/08/11 12:15:41;;;;;;;7.00;2.10;;;;;;;;;;7367631;19;19998;-76
2023/08/11 12:18:07;;;;;;;4.65;2.28;;;;;;;;;;7366128;19;20062;-76
2023/08/11 12:20:35;;;;;;;6.55;2.10;;;;;;;;;;7388907;19;20023;-76
2023/08/11 12:23:00;;;;;;;3.13;2.13;;;;;;;;;;7369924;19;20027;-76
2023/08/11 12:25:26;;;;;;;4.82;2.15;;;;;;;;;;7369441;19;20010;-76
2023/08/11 12:27:55;;;;;;;4.30;2.17;;;;;;;;;;7369899;19;20103;-76
2023/08/11 12:30:20;;;;;;;4.47;2.00;;;;;;;;;;7371402;19;20007;-76
2023/08/11 12:32:46;;;;;;;3.53;2.05;;;;;;;;;;7390099;19;20019;-76
2023/08/11 12:35:11;;;;;;;3.90;2.00;;;;;;;;;;7368371;19;20010;-76
2023/08/11 12:37:37;;;;;;;3.10;1.80;;;;;;;;;;7370202;19;20025;-74
2023/08/11 12:40:03;;;;;;;2.85;1.88;;;;;;;;;;7368926;19;20459;-74
2023/08/11 12:42:28;;;;;;;3.63;2.03;;;;;;;;;;7373409;19;20027;-73
2023/08/11 12:44:54;;;;;;;4.10;1.98;;;;;;;;;;7368156;19;20008;-74
2023/08/11 12:47:19;;;;;;;3.03;1.90;;;;;;;;;;7389903;19;19999;-74
2023/08/11 12:49:44;;;;;;;5.33;2.00;;;;;;;;;;7368226;19;20258;-74
2023/08/11 12:52:09;;;;;;;4.65;2.00;;;;;;;;;;7369572;19;20296;-73
2023/08/11 12:54:35;;;;;;;3.73;2.07;;;;;;;;;;7365861;19;20029;-73
2023/08/11 12:57:00;;;;;;;3.03;1.93;;;;;;;;;;7366433;19;20885;-72
2023/08/11 12:59:25;;;;;;;2.90;1.80;;;;;;;;;;7387107;19;20285;-73
2023/08/11 13:01:51;;;;;;;4.95;1.80;;;;;;;;;;7368318;19;20280;-73
2023/08/11 13:04:18;;;;;;;3.40;1.77;;;;;;;;;;7366745;19;20054;-73
2023/08/11 13:06:43;;;;;;;4.05;2.00;;;;;;;;;;7367151;19;20022;-73
2023/08/11 13:09:08;;;;;;;4.88;2.10;;;;;;;;;;7367420;19;19999;-74
2023/08/11 13:11:34;;;;;;;5.93;2.30;;;;;;;;;;7388737;19;19999;-73
2023/08/11 13:13:59;;;;;;;5.55;2.20;;;;;;;;;;7363763;19;20501;-73
2023/08/11 13:16:25;;;;;;;6.90;2.97;;;;;;;;;;7366131;19;20125;-74
2023/08/11 13:18:50;;;;;;;3.08;2.03;;;;;;;;;;7369533;19;20014;-73
2023/08/11 13:21:16;;;;;;;5.05;2.33;;;;;;;;;;7365262;19;20030;-73
2023/08/11 13:23:42;;;;;;;3.00;1.90;;;;;;;;;;7387470;19;20009;-75
2023/08/11 13:26:07;;;;;;;4.68;2.22;;;;;;;;;;7367212;19;20011;-74
2023/08/11 13:28:33;;;;;;;4.50;2.33;;;;;;;;;;7366863;19;20071;-74
2023/08/11 13:30:59;;;;;;;4.60;2.10;;;;;;;;;;7367233;19;20087;-74
2023/08/11 13:33:24;;;;;;;3.25;2.03;;;;;;;;;;7367960;19;20002;-74
2023/08/11 13:35:49;;;;;;;6.43;2.38;;;;;;;;;;7388467;19;20071;-75
2023/08/11 13:38:15;;;;;;;5.50;2.33;;;;;;;;;;7365979;19;20078;-74
2023/08/11 13:40:40;;;;;;;5.05;2.40;;;;;;;;;;7363603;19;20019;-74
2023/08/11 13:43:06;;;;;;;3.20;2.25;;;;;;;;;;7357306;19;20038;-73
2023/08/11 13:45:33;;;;;;;3.92;2.33;;;;;;;;;;7362293;19;20481;-75
2023/08/11 13:47:58;;;;;;;8.27;2.63;;;;;;;;;;7362119;19;20031;-75
2023/08/11 13:50:24;;;;;;;5.63;2.80;;;;;;;;;;7381419;19;20002;-74
2023/08/11 13:52:49;;;;;;;6.72;3.40;;;;;;;;;;7361200;19;20632;-73
2023/08/11 13:55:15;;;;;;;5.93;2.17;;;;;;;;;;7358521;19;20010;-73
2023/08/11 13:57:40;;;;;;;4.38;2.67;;;;;;;;;;7355623;19;20013;-73
2023/08/11 14:00:08;;;;;;;6.28;2.13;;;;;;;;;;7363866;19;20019;-74
2023/08/11 14:02:33;;;;;;;5.10;2.38;;;;;;;;;;7385103;19;20555;-75
2023/08/11 14:04:59;;;;;;;6.93;4.03;;;;;;;;;;7360275;19;20002;-73
2023/08/11 14:07:24;;;;;;;5.60;3.10;;;;;;;;;;7370539;19;20035;-73
2023/08/11 14:09:50;;;;;;;5.38;2.95;;;;;;;;;;7371715;19;19998;-74
2023/08/11 14:12:17;;;;;;;11.98;9.75;;;;;;;;;;7374151;19;20010;-74
2023/08/11 14:14:43;;;;;;;3.80;2.53;;;;;;;;;;7387705;19;20006;-73
2023/08/11 14:17:08;;;;;;;6.60;3.47;;;;;;;;;;7370778;19;20006;-75
2023/08/11 14:19:34;;;;;;;3.88;2.40;;;;;;;;;;7370062;19;20013;-74
2023/08/11 14:21:59;;;;;;;4.85;2.60;;;;;;;;;;7369015;19;20034;-74
2023/08/11 14:24:24;;;;;;;6.50;2.80;;;;;;;;;;7368442;19;20018;-74
2023/08/11 14:26:49;;;;;;;6.87;2.37;;;;;;;;;;7387907;19;20411;-74
2023/08/11 14:29:18;;;;;;;4.13;2.60;;;;;;;;;;7369392;19;20247;-74
2023/08/11 14:31:43;;;;;;;5.93;2.70;;;;;;;;;;7372036;19;20009;-74